This is the latest recevied weather packets stored in our database for station/object VE3EP-1. If no packets are shown the sender has not sent any weather packets the latest 10 day(s).
| Time | Temp. | Humidity | Pressure | Rain* | Wind** | Luminosity | Snow |
|---|---|---|---|---|---|---|---|
| 1788560937 | 22.22° C | 81% | 1014.8 hPa | 0 mm | - | - | - |
| 1788557937 | 22.22° C | 79% | 1014.9 hPa | 0 mm | - | - | - |
| 1788557337 | 22.22° C | 80% | 1015.1 hPa | 0 mm | - | - | - |
| 1788556737 | 22.22° C | 80% | 1015.2 hPa | 0 mm | - | - | - |
| 1788554337 | 23.33° C | 76% | 1015.2 hPa | 0 mm | - | - | - |
| 1788553137 | 23.33° C | 76% | 1015.5 hPa | 0 mm | - | - | - |
| 1788552538 | 23.33° C | 75% | 1015.5 hPa | 0 mm | - | - | - |
| 1788551937 | 23.89° C | 73% | 1015.5 hPa | 0 mm | - | - | - |
| 1788550737 | 23.89° C | 72% | 1016.1 hPa | 0 mm | - | - | - |
| 1788550137 | 23.33° C | 72% | 1016.1 hPa | 0 mm | - | - | - |
| 1788549544 | 24.44° C | 69% | 1016.2 hPa | 0 mm | - | - | - |
| 1788548937 | 23.33° C | 73% | 1016.3 hPa | 0 mm | - | - | - |
| 1788547737 | 23.89° C | 72% | 1016.4 hPa | 0 mm | - | - | - |
| 1788547138 | 23.33° C | 72% | 1016.1 hPa | 0 mm | - | - | - |
| 1788546537 | 23.33° C | 73% | 1016.4 hPa | 0 mm | - | - | - |
| 1788545937 | 23.33° C | 71% | 1016.3 hPa | 0 mm | - | - | - |
| 1788545337 | 23.33° C | 73% | 1016.5 hPa | 0 mm | - | - | - |
| 1788544737 | 23.33° C | 73% | 1016.4 hPa | 0 mm | - | - | - |
| 1788539937 | 23.33° C | 75% | 1016.6 hPa | 0 mm | - | - | - |
| 1788537537 | 22.78° C | 75% | 1016.8 hPa | 0 mm | - | - | - |
| 1788536938 | 22.22° C | 74% | 1016.7 hPa | 0 mm | - | - | - |
| 1788534537 | 21.67° C | 75% | 1017 hPa | 0 mm | - | - | - |
| 1788533337 | 21.67° C | 74% | 1016.7 hPa | 0 mm | - | - | - |
| 1788528538 | 19.44° C | 81% | 1017.3 hPa | 0 mm | - | - | - |
| 1788526138 | 18.33° C | 87% | 1017.1 hPa | 0 mm | - | - | - |
* Rain latest hour (hover to see other rain measurements)
** Current wind speed in m/s (hover to see current wind gust speed)